Time;durP1;ratioP1;P1;durP2;ratioP2;P2;SDS_P1;SDS_P2;PMS_P1;PMS_P2;Temp;Humidity;BMP_temperature;BMP_pressure;BME280_temperature;BME280_humidity;BME280_pressure;Samples;Min_cycle;Max_cycle;Signal;HPM_P1;HPM_P2
2021/10/21 00:00:27;;;;;;;88.00;60.05;;;;;;;;;;4927951;29;20528;-88
2021/10/21 00:02:54;;;;;;;89.90;61.50;;;;;;;;;;4926577;29;20499;-90
2021/10/21 00:05:21;;;;;;;92.88;60.00;;;;;;;;;;4929088;29;20492;-88
2021/10/21 00:07:48;;;;;;;91.30;61.20;;;;;;;;;;4930678;29;20759;-87
2021/10/21 00:10:16;;;;;;;94.50;61.97;;;;;;;;;;4928343;29;20410;-89
2021/10/21 00:12:44;;;;;;;90.30;60.80;;;;;;;;;;4927052;29;20512;-90
2021/10/21 00:15:12;;;;;;;92.63;60.23;;;;;;;;;;4935042;29;20885;-90
2021/10/21 00:17:40;;;;;;;91.97;61.45;;;;;;;;;;4932801;29;20425;-90
2021/10/21 00:20:10;;;;;;;91.32;59.42;;;;;;;;;;4932239;29;20421;-90
2021/10/21 00:22:37;;;;;;;89.60;60.17;;;;;;;;;;4925739;29;20507;-90
2021/10/21 00:25:05;;;;;;;88.07;58.42;;;;;;;;;;4927785;29;20437;-91
2021/10/21 00:27:31;;;;;;;92.40;60.45;;;;;;;;;;4921882;29;20607;-91
2021/10/21 00:29:59;;;;;;;89.35;58.53;;;;;;;;;;4924775;29;20410;-90
2021/10/21 00:32:26;;;;;;;92.65;59.60;;;;;;;;;;4924320;29;20421;-90
2021/10/21 00:34:55;;;;;;;89.22;58.40;;;;;;;;;;4925984;29;20410;-91
2021/10/21 00:37:22;;;;;;;90.22;60.33;;;;;;;;;;4923033;29;20767;-90
2021/10/21 00:39:49;;;;;;;96.05;60.17;;;;;;;;;;4924369;29;20428;-91
2021/10/21 00:42:16;;;;;;;91.15;58.85;;;;;;;;;;4929460;29;20429;-91
2021/10/21 00:44:44;;;;;;;93.57;59.90;;;;;;;;;;4926463;29;20430;-91
2021/10/21 00:47:11;;;;;;;96.72;61.90;;;;;;;;;;4928115;29;20409;-91
2021/10/21 00:49:38;;;;;;;93.97;62.17;;;;;;;;;;4930353;29;20418;-90
2021/10/21 00:52:07;;;;;;;92.07;61.28;;;;;;;;;;4926407;29;20425;-90
2021/10/21 00:54:35;;;;;;;90.72;60.10;;;;;;;;;;4926334;29;20428;-90
2021/10/21 00:57:03;;;;;;;91.28;59.95;;;;;;;;;;4925861;29;20431;-91
2021/10/21 00:59:33;;;;;;;91.78;62.05;;;;;;;;;;4929618;29;20425;-90
2021/10/21 01:02:00;;;;;;;90.00;61.95;;;;;;;;;;4922025;29;20423;-90
2021/10/21 01:04:27;;;;;;;96.03;63.17;;;;;;;;;;4929505;29;20424;-90
2021/10/21 01:06:54;;;;;;;96.18;62.50;;;;;;;;;;4925236;29;20598;-90
2021/10/21 01:09:24;;;;;;;95.75;62.88;;;;;;;;;;4911287;29;20500;-90
2021/10/21 01:11:51;;;;;;;95.43;62.50;;;;;;;;;;4927725;29;20414;-90
2021/10/21 01:14:18;;;;;;;93.85;61.45;;;;;;;;;;4925468;29;20430;-92
2021/10/21 01:16:45;;;;;;;97.97;63.80;;;;;;;;;;4929070;29;20417;-91
2021/10/21 01:19:17;;;;;;;95.88;63.53;;;;;;;;;;4920472;29;20419;-90
2021/10/21 01:21:47;;;;;;;100.85;64.78;;;;;;;;;;4924683;29;20473;-91
2021/10/21 01:24:14;;;;;;;106.68;67.22;;;;;;;;;;4927611;29;20429;-90
2021/10/21 01:26:43;;;;;;;105.53;68.10;;;;;;;;;;4928855;29;20414;-91
2021/10/21 01:29:10;;;;;;;102.50;65.60;;;;;;;;;;4927613;29;20905;-91
2021/10/21 01:31:39;;;;;;;101.85;65.57;;;;;;;;;;4928524;29;20425;-90
2021/10/21 01:34:08;;;;;;;102.80;66.20;;;;;;;;;;4922206;29;21024;-90
2021/10/21 01:36:35;;;;;;;102.32;66.40;;;;;;;;;;4925088;29;20460;-91
2021/10/21 01:39:04;;;;;;;103.80;65.80;;;;;;;;;;4928060;29;20433;-91
2021/10/21 01:41:31;;;;;;;105.70;67.05;;;;;;;;;;4927985;29;20429;-91
2021/10/21 01:43:58;;;;;;;102.75;66.97;;;;;;;;;;4928324;29;20422;-91
2021/10/21 01:46:25;;;;;;;104.72;65.93;;;;;;;;;;4923812;29;20775;-90
2021/10/21 01:48:52;;;;;;;103.93;66.13;;;;;;;;;;4929682;29;20740;-90
2021/10/21 01:51:19;;;;;;;103.72;65.45;;;;;;;;;;4927045;29;20428;-91
2021/10/21 01:53:46;;;;;;;107.90;66.13;;;;;;;;;;4928652;29;20414;-91
2021/10/21 01:56:15;;;;;;;108.30;67.30;;;;;;;;;;4942577;28;20406;-90
2021/10/21 01:58:42;;;;;;;103.25;64.63;;;;;;;;;;4956056;28;20398;-91
2021/10/21 02:01:09;;;;;;;101.60;65.45;;;;;;;;;;4936058;29;20406;-91
2021/10/21 02:03:36;;;;;;;105.60;68.10;;;;;;;;;;4920628;29;20423;-90
2021/10/21 02:06:03;;;;;;;103.07;65.93;;;;;;;;;;4939180;29;20423;-90
2021/10/21 02:08:30;;;;;;;103.10;67.15;;;;;;;;;;4937705;29;20877;-90
2021/10/21 02:10:57;;;;;;;104.68;66.65;;;;;;;;;;4932592;29;20425;-90
2021/10/21 02:13:25;;;;;;;102.60;66.15;;;;;;;;;;4932758;29;20409;-90
2021/10/21 02:15:52;;;;;;;103.22;66.93;;;;;;;;;;4925274;29;20423;-91
2021/10/21 02:18:19;;;;;;;106.55;66.32;;;;;;;;;;4929546;29;20409;-90
2021/10/21 02:20:46;;;;;;;105.13;67.28;;;;;;;;;;4932972;29;20420;-91
2021/10/21 02:23:13;;;;;;;111.95;69.65;;;;;;;;;;4929505;29;20430;-90
2021/10/21 02:25:40;;;;;;;107.10;69.72;;;;;;;;;;4929810;29;20414;-90
2021/10/21 02:28:07;;;;;;;102.55;67.18;;;;;;;;;;4932423;29;20433;-91
2021/10/21 02:30:36;;;;;;;103.43;67.35;;;;;;;;;;4933416;29;20418;-91
2021/10/21 02:33:03;;;;;;;104.45;68.00;;;;;;;;;;4937913;29;20413;-91
2021/10/21 02:35:30;;;;;;;106.30;69.43;;;;;;;;;;4932761;29;21035;-91
2021/10/21 02:37:56;;;;;;;105.32;68.05;;;;;;;;;;4932677;29;20914;-91
2021/10/21 02:40:23;;;;;;;107.85;68.88;;;;;;;;;;4932178;29;20765;-91
2021/10/21 02:42:50;;;;;;;109.70;69.30;;;;;;;;;;4932339;29;20412;-91
2021/10/21 02:45:17;;;;;;;106.30;67.82;;;;;;;;;;4931633;29;20438;-91
2021/10/21 02:47:45;;;;;;;102.53;66.80;;;;;;;;;;4932482;29;20413;-90
2021/10/21 02:50:12;;;;;;;103.00;66.43;;;;;;;;;;4919076;29;20420;-91
2021/10/21 02:52:40;;;;;;;104.72;68.78;;;;;;;;;;4944464;29;20425;-91
2021/10/21 02:55:07;;;;;;;109.07;67.20;;;;;;;;;;4932386;29;20802;-90
2021/10/21 02:57:34;;;;;;;106.65;67.38;;;;;;;;;;4950994;29;20412;-91
2021/10/21 03:00:02;;;;;;;102.68;66.63;;;;;;;;;;4940117;29;20421;-91
2021/10/21 03:02:28;;;;;;;105.82;67.50;;;;;;;;;;4931600;29;20906;-91
2021/10/21 03:04:57;;;;;;;103.13;65.97;;;;;;;;;;4931872;29;20445;-91
2021/10/21 03:07:24;;;;;;;111.05;69.80;;;;;;;;;;4931136;29;20421;-91
2021/10/21 03:09:50;;;;;;;109.07;68.50;;;;;;;;;;4942874;29;20418;-91
2021/10/21 03:12:17;;;;;;;116.40;71.35;;;;;;;;;;4931550;29;20422;-91
2021/10/21 03:14:44;;;;;;;111.45;71.03;;;;;;;;;;4932365;29;20429;-90
2021/10/21 03:17:12;;;;;;;115.57;69.77;;;;;;;;;;4932111;29;20786;-91
2021/10/21 03:19:39;;;;;;;114.82;70.00;;;;;;;;;;4931659;29;20426;-91
2021/10/21 03:22:07;;;;;;;113.35;71.10;;;;;;;;;;4943009;29;20777;-91
2021/10/21 03:24:34;;;;;;;117.00;71.82;;;;;;;;;;4938793;29;20902;-90
2021/10/21 03:27:01;;;;;;;113.53;71.97;;;;;;;;;;4945440;29;20416;-91
2021/10/21 03:29:28;;;;;;;114.87;72.87;;;;;;;;;;4935571;29;20417;-91
2021/10/21 03:31:55;;;;;;;116.25;72.25;;;;;;;;;;4926272;29;20419;-91
2021/10/21 03:34:22;;;;;;;120.03;71.82;;;;;;;;;;4926012;29;20724;-90
2021/10/21 03:36:49;;;;;;;112.32;70.85;;;;;;;;;;4925994;29;20412;-91
2021/10/21 03:39:17;;;;;;;116.28;70.60;;;;;;;;;;4920402;29;20507;-90
2021/10/21 03:41:44;;;;;;;114.35;71.35;;;;;;;;;;4917141;29;20419;-90
2021/10/21 03:44:11;;;;;;;120.85;74.40;;;;;;;;;;4915452;29;20427;-90
2021/10/21 03:46:39;;;;;;;120.05;73.28;;;;;;;;;;4930955;29;20425;-91
2021/10/21 03:49:06;;;;;;;121.38;73.72;;;;;;;;;;4924147;29;20459;-91
2021/10/21 03:51:33;;;;;;;118.43;72.47;;;;;;;;;;4927244;29;20417;-91
2021/10/21 03:54:00;;;;;;;114.05;70.80;;;;;;;;;;4930590;29;20417;-90
2021/10/21 03:56:28;;;;;;;118.53;72.40;;;;;;;;;;4919871;29;20425;-91
2021/10/21 03:58:55;;;;;;;114.75;70.43;;;;;;;;;;4915826;29;20415;-91
2021/10/21 04:01:22;;;;;;;112.40;70.70;;;;;;;;;;4927214;29;20485;-90
2021/10/21 04:03:49;;;;;;;117.05;71.20;;;;;;;;;;4924119;29;20905;-91
2021/10/21 04:06:16;;;;;;;120.57;72.43;;;;;;;;;;4914225;29;20455;-90
2021/10/21 04:08:43;;;;;;;113.23;73.17;;;;;;;;;;4922636;29;20437;-91
2021/10/21 04:11:09;;;;;;;121.20;74.35;;;;;;;;;;4928069;29;20405;-91
2021/10/21 04:13:38;;;;;;;117.80;73.85;;;;;;;;;;4928358;29;20412;-91
2021/10/21 04:16:05;;;;;;;120.23;74.10;;;;;;;;;;4929937;29;20450;-90
2021/10/21 04:18:32;;;;;;;120.00;74.25;;;;;;;;;;4924872;29;20422;-90
2021/10/21 04:20:59;;;;;;;123.72;75.85;;;;;;;;;;4923887;29;20430;-90
2021/10/21 04:23:26;;;;;;;123.30;76.45;;;;;;;;;;4923724;29;20422;-90
2021/10/21 04:25:53;;;;;;;122.35;76.28;;;;;;;;;;4928353;29;20437;-89
2021/10/21 04:28:20;;;;;;;116.10;74.72;;;;;;;;;;4933814;29;20422;-90
2021/10/21 04:30:48;;;;;;;120.65;72.35;;;;;;;;;;4931738;29;20880;-90
2021/10/21 04:33:15;;;;;;;117.25;75.68;;;;;;;;;;4926190;29;20425;-91
2021/10/21 04:35:41;;;;;;;122.80;75.43;;;;;;;;;;4927918;29;20421;-90
2021/10/21 04:38:08;;;;;;;119.20;74.47;;;;;;;;;;4922417;29;20419;-90
2021/10/21 04:40:35;;;;;;;118.30;73.50;;;;;;;;;;4924188;29;20566;-90
2021/10/21 04:43:02;;;;;;;119.35;74.93;;;;;;;;;;4929162;29;20414;-90
2021/10/21 04:45:29;;;;;;;126.03;75.93;;;;;;;;;;4922369;29;20459;-89
2021/10/21 04:47:57;;;;;;;123.00;75.93;;;;;;;;;;4928906;29;20413;-90
2021/10/21 04:50:24;;;;;;;121.70;75.65;;;;;;;;;;4925186;29;20756;-90
2021/10/21 04:52:53;;;;;;;118.93;75.82;;;;;;;;;;4929725;29;20473;-90
2021/10/21 04:55:20;;;;;;;121.95;74.93;;;;;;;;;;4928806;29;20464;-90
2021/10/21 04:57:48;;;;;;;116.43;75.03;;;;;;;;;;4924601;29;20759;-90
2021/10/21 05:00:15;;;;;;;121.30;73.78;;;;;;;;;;4927127;29;20421;-90
2021/10/21 05:02:42;;;;;;;123.97;74.90;;;;;;;;;;4925677;29;20422;-90
2021/10/21 05:05:11;;;;;;;124.22;77.00;;;;;;;;;;4925262;29;20434;-90
2021/10/21 05:07:38;;;;;;;127.43;78.50;;;;;;;;;;4920102;29;20422;-90
2021/10/21 05:10:06;;;;;;;123.05;75.95;;;;;;;;;;4930522;29;20433;-90
2021/10/21 05:12:33;;;;;;;122.60;74.78;;;;;;;;;;4950378;28;20413;-90
2021/10/21 05:15:00;;;;;;;122.68;74.40;;;;;;;;;;4943221;28;20418;-89
2021/10/21 05:17:27;;;;;;;121.40;74.67;;;;;;;;;;4916958;29;20410;-89
2021/10/21 05:19:54;;;;;;;116.97;73.80;;;;;;;;;;4934455;29;20473;-90
2021/10/21 05:22:25;;;;;;;124.57;74.70;;;;;;;;;;4934178;29;20404;-91
2021/10/21 05:24:54;;;;;;;118.90;74.10;;;;;;;;;;4929519;29;20433;-90
2021/10/21 05:27:22;;;;;;;123.82;76.38;;;;;;;;;;4930509;29;20419;-90
2021/10/21 05:29:49;;;;;;;126.82;77.15;;;;;;;;;;4931865;28;20402;-90
2021/10/21 05:32:15;;;;;;;129.63;76.90;;;;;;;;;;4929111;29;20485;-90
2021/10/21 05:34:45;;;;;;;125.00;76.85;;;;;;;;;;4932388;29;20412;-90
2021/10/21 05:37:15;;;;;;;125.35;76.85;;;;;;;;;;4926896;29;20786;-90
2021/10/21 05:39:43;;;;;;;124.28;74.72;;;;;;;;;;4926472;29;20439;-90
2021/10/21 05:42:13;;;;;;;120.15;74.18;;;;;;;;;;4923140;29;20418;-91
2021/10/21 05:44:40;;;;;;;121.82;74.53;;;;;;;;;;4922938;29;20896;-89
2021/10/21 05:47:07;;;;;;;120.70;75.53;;;;;;;;;;4924799;29;20422;-89
2021/10/21 05:49:34;;;;;;;119.10;74.97;;;;;;;;;;4918593;29;20427;-89
2021/10/21 05:52:01;;;;;;;120.88;73.18;;;;;;;;;;4918175;29;20435;-90
2021/10/21 05:54:28;;;;;;;120.65;74.35;;;;;;;;;;4922539;29;20428;-89
2021/10/21 05:56:56;;;;;;;119.22;74.53;;;;;;;;;;4917803;29;20418;-89
2021/10/21 05:59:23;;;;;;;124.57;74.97;;;;;;;;;;4925255;29;20412;-90
2021/10/21 06:01:50;;;;;;;124.18;76.10;;;;;;;;;;4923300;29;20401;-89
2021/10/21 06:04:17;;;;;;;121.95;75.60;;;;;;;;;;4923718;29;20420;-89
2021/10/21 06:06:44;;;;;;;125.20;74.30;;;;;;;;;;4920617;29;20945;-89
2021/10/21 06:09:11;;;;;;;122.20;75.13;;;;;;;;;;4925017;29;20410;-90
2021/10/21 06:11:38;;;;;;;128.13;77.38;;;;;;;;;;4926187;29;20417;-90
2021/10/21 06:14:07;;;;;;;132.68;77.93;;;;;;;;;;4924914;29;20423;-89
2021/10/21 06:16:35;;;;;;;126.70;76.83;;;;;;;;;;4924207;29;20414;-90
2021/10/21 06:19:02;;;;;;;123.60;75.32;;;;;;;;;;4931606;29;20427;-89
2021/10/21 06:21:30;;;;;;;124.85;75.13;;;;;;;;;;4927792;29;20424;-90
2021/10/21 06:23:57;;;;;;;123.38;75.90;;;;;;;;;;4926655;29;20422;-90
2021/10/21 06:26:24;;;;;;;124.82;76.63;;;;;;;;;;4926495;29;20571;-90
2021/10/21 06:28:52;;;;;;;124.93;77.53;;;;;;;;;;4928930;29;20431;-90
2021/10/21 06:31:22;;;;;;;128.00;78.43;;;;;;;;;;4922472;29;20511;-90
2021/10/21 06:33:49;;;;;;;129.80;77.20;;;;;;;;;;4926204;29;20422;-90
2021/10/21 06:36:16;;;;;;;120.35;74.95;;;;;;;;;;4923998;29;20436;-90
2021/10/21 06:38:44;;;;;;;126.00;76.53;;;;;;;;;;4926092;29;20890;-90
2021/10/21 06:41:11;;;;;;;131.83;79.63;;;;;;;;;;4924832;29;20488;-91
2021/10/21 06:43:39;;;;;;;134.00;79.43;;;;;;;;;;4922242;29;20488;-90
2021/10/21 06:46:07;;;;;;;136.77;80.40;;;;;;;;;;4936865;29;20437;-90
2021/10/21 06:48:35;;;;;;;136.85;79.85;;;;;;;;;;4934340;29;20412;-91
2021/10/21 06:51:03;;;;;;;121.47;75.60;;;;;;;;;;4934750;29;20412;-90
2021/10/21 06:53:30;;;;;;;131.15;78.55;;;;;;;;;;4935139;29;20421;-90
2021/10/21 06:55:56;;;;;;;125.70;78.25;;;;;;;;;;4935718;29;20408;-90
2021/10/21 06:58:23;;;;;;;132.35;80.35;;;;;;;;;;4934128;29;20456;-89
2021/10/21 07:00:50;;;;;;;123.72;75.43;;;;;;;;;;4941920;29;20414;-89
2021/10/21 07:03:17;;;;;;;125.35;77.18;;;;;;;;;;4933519;29;20456;-90
2021/10/21 07:05:46;;;;;;;132.35;79.45;;;;;;;;;;4924919;29;20431;-76
2021/10/21 07:08:13;;;;;;;134.80;80.15;;;;;;;;;;4930716;29;20414;-77
2021/10/21 07:10:46;;;;;;;136.25;81.28;;;;;;;;;;4931481;29;20426;-79
2021/10/21 07:13:14;;;;;;;132.60;81.68;;;;;;;;;;4929673;29;20418;-79
2021/10/21 07:15:40;;;;;;;133.00;80.85;;;;;;;;;;4927754;29;20416;-80
2021/10/21 07:18:07;;;;;;;130.70;80.95;;;;;;;;;;4931493;29;20406;-79
2021/10/21 07:20:34;;;;;;;133.35;82.28;;;;;;;;;;4927433;29;20410;-80
2021/10/21 07:23:02;;;;;;;131.63;81.25;;;;;;;;;;4923309;29;20750;-80
2021/10/21 07:25:29;;;;;;;139.90;83.13;;;;;;;;;;4929617;29;20426;-80
2021/10/21 07:27:56;;;;;;;145.35;86.70;;;;;;;;;;4928437;29;20813;-79
2021/10/21 07:30:27;;;;;;;149.13;86.90;;;;;;;;;;4926556;29;20417;-89
2021/10/21 07:32:54;;;;;;;144.30;85.63;;;;;;;;;;4927310;29;20441;-89
2021/10/21 07:35:22;;;;;;;151.68;88.55;;;;;;;;;;4931589;29;21519;-89
2021/10/21 07:37:49;;;;;;;141.30;85.68;;;;;;;;;;4929159;29;20430;-89
2021/10/21 07:40:18;;;;;;;152.43;89.18;;;;;;;;;;4923546;29;20930;-89
2021/10/21 07:42:45;;;;;;;152.50;90.75;;;;;;;;;;4925266;29;20412;-90
2021/10/21 07:45:12;;;;;;;157.30;92.55;;;;;;;;;;4929418;29;20411;-90
2021/10/21 07:47:40;;;;;;;159.73;92.65;;;;;;;;;;4925011;29;20433;-89
2021/10/21 07:50:11;;;;;;;163.40;93.55;;;;;;;;;;4926245;29;20427;-89
2021/10/21 07:52:40;;;;;;;158.93;94.20;;;;;;;;;;4923156;29;20419;-90
2021/10/21 07:57:57;;;;;;;153.57;89.95;;;;;;;;;;4922975;29;20422;-89
2021/10/21 08:00:24;;;;;;;160.02;94.10;;;;;;;;;;4924630;29;20426;-89
2021/10/21 08:02:51;;;;;;;150.20;93.03;;;;;;;;;;4931754;29;20413;-88
2021/10/21 08:05:18;;;;;;;160.77;94.17;;;;;;;;;;4934085;29;20412;-88
2021/10/21 08:07:47;;;;;;;159.00;94.35;;;;;;;;;;4929865;29;20424;-89
2021/10/21 08:10:16;;;;;;;160.55;93.85;;;;;;;;;;4928944;29;21052;-89
2021/10/21 08:12:43;;;;;;;151.52;94.28;;;;;;;;;;4929723;29;20421;-89
2021/10/21 08:15:12;;;;;;;153.88;92.15;;;;;;;;;;4931343;29;20417;-91
2021/10/21 08:17:39;;;;;;;157.50;91.18;;;;;;;;;;4933080;29;20429;-91
2021/10/21 08:20:10;;;;;;;148.60;91.87;;;;;;;;;;4933331;29;20432;-91
2021/10/21 08:22:37;;;;;;;154.95;94.80;;;;;;;;;;4932151;29;20422;-91
2021/10/21 08:25:05;;;;;;;162.25;92.15;;;;;;;;;;4933036;29;20413;-92
2021/10/21 08:27:32;;;;;;;171.95;97.93;;;;;;;;;;4933675;29;20802;-91
2021/10/21 08:29:59;;;;;;;164.10;93.97;;;;;;;;;;4934202;29;20957;-91
2021/10/21 08:32:29;;;;;;;158.88;92.75;;;;;;;;;;4940289;28;20481;-91
2021/10/21 08:34:56;;;;;;;157.95;93.85;;;;;;;;;;4953767;28;20441;-91
2021/10/21 08:37:23;;;;;;;161.47;94.43;;;;;;;;;;4940462;29;20402;-91
2021/10/21 08:39:50;;;;;;;160.70;93.43;;;;;;;;;;4937806;29;20418;-91
2021/10/21 08:42:19;;;;;;;163.25;94.72;;;;;;;;;;4933000;29;20423;-91
2021/10/21 08:44:47;;;;;;;161.40;95.03;;;;;;;;;;4933847;29;20422;-91
2021/10/21 08:47:14;;;;;;;157.25;93.93;;;;;;;;;;4953840;28;20434;-91
2021/10/21 08:49:43;;;;;;;155.70;92.78;;;;;;;;;;4953156;29;20418;-92
2021/10/21 08:52:12;;;;;;;147.65;89.85;;;;;;;;;;4943872;29;20917;-91
2021/10/21 08:54:39;;;;;;;150.70;90.50;;;;;;;;;;4927685;29;20484;-92
2021/10/21 08:57:11;;;;;;;147.50;91.55;;;;;;;;;;4947309;29;20463;-91
2021/10/21 08:59:41;;;;;;;154.13;92.85;;;;;;;;;;4944028;29;20459;-91
2021/10/21 09:02:15;;;;;;;153.05;92.70;;;;;;;;;;4938967;29;20554;-91
2021/10/21 09:04:59;;;;;;;155.82;92.80;;;;;;;;;;4939429;29;20447;-90
2021/10/21 09:10:14;;;;;;;152.40;94.95;;;;;;;;;;4919601;29;20491;-90
2021/10/21 09:12:43;;;;;;;159.50;96.32;;;;;;;;;;4929980;29;20413;-90
2021/10/21 09:15:13;;;;;;;167.60;95.65;;;;;;;;;;4935821;29;20807;-89
2021/10/21 09:17:40;;;;;;;161.25;96.05;;;;;;;;;;4928788;29;20449;-89
2021/10/21 09:20:37;;;;;;;166.85;99.38;;;;;;;;;;4933461;29;20501;-89
2021/10/21 09:23:06;;;;;;;173.27;101.22;;;;;;;;;;4930131;29;20413;-88
2021/10/21 09:25:34;;;;;;;169.70;98.80;;;;;;;;;;4926745;29;20418;-88
2021/10/21 09:28:15;;;;;;;177.95;99.80;;;;;;;;;;4935347;29;20444;-89
2021/10/21 09:30:50;;;;;;;159.77;97.93;;;;;;;;;;4932801;29;20417;-89
2021/10/21 09:33:17;;;;;;;169.82;99.45;;;;;;;;;;4903083;29;20460;-87
2021/10/21 09:35:55;;;;;;;171.55;100.18;;;;;;;;;;4917798;29;20427;-89
2021/10/21 09:38:28;;;;;;;166.45;99.18;;;;;;;;;;4931294;29;20418;-88
2021/10/21 09:40:55;;;;;;;170.05;99.15;;;;;;;;;;4916424;29;20410;-89
2021/10/21 09:43:29;;;;;;;167.45;100.93;;;;;;;;;;4919685;29;20906;-89
2021/10/21 09:45:57;;;;;;;166.77;99.17;;;;;;;;;;4922588;29;20419;-88
2021/10/21 09:48:24;;;;;;;164.27;97.30;;;;;;;;;;4923953;29;20924;-88
2021/10/21 09:50:53;;;;;;;162.85;98.70;;;;;;;;;;4925983;29;20421;-89
2021/10/21 09:53:22;;;;;;;161.98;97.97;;;;;;;;;;4926723;29;20409;-90
2021/10/21 09:55:52;;;;;;;167.25;101.38;;;;;;;;;;4925215;29;20860;-90
2021/10/21 09:58:22;;;;;;;164.50;99.10;;;;;;;;;;4924197;29;20800;-88
2021/10/21 10:00:50;;;;;;;162.52;97.63;;;;;;;;;;4926814;29;20894;-89
2021/10/21 10:03:19;;;;;;;163.77;98.60;;;;;;;;;;4925487;29;20460;-89
2021/10/21 10:05:48;;;;;;;155.48;96.70;;;;;;;;;;4926650;29;20502;-87
2021/10/21 10:08:18;;;;;;;156.83;94.07;;;;;;;;;;4927065;29;20398;-89
2021/10/21 10:10:49;;;;;;;147.10;92.45;;;;;;;;;;4924658;29;20486;-89
2021/10/21 10:13:17;;;;;;;156.70;94.28;;;;;;;;;;4928633;29;20512;-89
2021/10/21 10:15:45;;;;;;;154.57;92.97;;;;;;;;;;4924506;29;20413;-88
2021/10/21 10:18:18;;;;;;;156.55;94.25;;;;;;;;;;4938068;29;20431;-88
2021/10/21 10:20:46;;;;;;;153.77;95.40;;;;;;;;;;4929068;29;20425;-87
2021/10/21 10:23:14;;;;;;;139.00;85.93;;;;;;;;;;4923027;29;20407;-89
2021/10/21 10:25:49;;;;;;;139.10;86.40;;;;;;;;;;4931133;29;20420;-89
2021/10/21 10:28:17;;;;;;;147.35;89.35;;;;;;;;;;4931240;29;20917;-89
2021/10/21 10:30:50;;;;;;;145.73;89.20;;;;;;;;;;4931492;29;20425;-88
2021/10/21 10:33:40;;;;;;;149.07;90.75;;;;;;;;;;4929843;29;20413;-88
2021/10/21 10:36:27;;;;;;;138.57;85.37;;;;;;;;;;4924159;29;20590;-88
2021/10/21 10:38:55;;;;;;;141.77;86.00;;;;;;;;;;4928002;29;20781;-88
2021/10/21 10:41:57;;;;;;;151.85;89.38;;;;;;;;;;4926883;29;20778;-89
2021/10/21 10:45:03;;;;;;;143.98;86.53;;;;;;;;;;4868461;29;20462;-88
2021/10/21 10:47:48;;;;;;;145.18;86.43;;;;;;;;;;4864503;29;20435;-88
2021/10/21 10:50:18;;;;;;;131.40;80.97;;;;;;;;;;4917023;29;20410;-88
2021/10/21 10:56:14;;;;;;;124.85;75.85;;;;;;;;;;4925044;29;20859;-89
2021/10/21 10:58:42;;;;;;;116.78;72.90;;;;;;;;;;4927853;29;20419;-89
2021/10/21 11:01:09;;;;;;;111.38;68.43;;;;;;;;;;4929934;29;20414;-88
2021/10/21 11:03:38;;;;;;;109.22;67.90;;;;;;;;;;4928375;29;20413;-89
2021/10/21 11:06:07;;;;;;;119.28;73.25;;;;;;;;;;4932686;29;21010;-89
2021/10/21 11:08:54;;;;;;;124.40;74.38;;;;;;;;;;4926100;28;20423;-89
2021/10/21 11:11:43;;;;;;;116.82;71.15;;;;;;;;;;4930143;29;20789;-89
2021/10/21 11:14:13;;;;;;;110.32;69.10;;;;;;;;;;4925838;29;20430;-89
2021/10/21 11:17:06;;;;;;;106.93;66.38;;;;;;;;;;4926044;29;20414;-89
2021/10/21 11:19:56;;;;;;;95.72;60.17;;;;;;;;;;4871932;29;20419;-89
2021/10/21 11:22:40;;;;;;;100.37;61.23;;;;;;;;;;4921977;29;20466;-89
2021/10/21 11:25:16;;;;;;;94.60;59.30;;;;;;;;;;4930671;29;20458;-89
2021/10/21 11:27:46;;;;;;;97.50;60.90;;;;;;;;;;4937612;28;20936;-90
2021/10/21 11:30:20;;;;;;;101.65;61.92;;;;;;;;;;4936326;29;20410;-89
2021/10/21 11:32:48;;;;;;;96.57;61.17;;;;;;;;;;4935399;29;20412;-89
2021/10/21 11:35:18;;;;;;;98.85;61.22;;;;;;;;;;4931274;29;20446;-89
2021/10/21 11:37:49;;;;;;;98.70;61.42;;;;;;;;;;4925953;29;20420;-88
2021/10/21 11:40:24;;;;;;;98.93;60.63;;;;;;;;;;4935374;29;20406;-89
2021/10/21 11:42:56;;;;;;;93.68;57.92;;;;;;;;;;4930078;29;20764;-89
2021/10/21 11:45:39;;;;;;;90.85;58.05;;;;;;;;;;4914086;29;20422;-88
2021/10/21 11:48:13;;;;;;;87.55;57.35;;;;;;;;;;4928501;29;21430;-88
2021/10/21 11:50:43;;;;;;;93.00;57.88;;;;;;;;;;4924232;29;20420;-90
2021/10/21 11:53:13;;;;;;;101.88;61.40;;;;;;;;;;4931753;29;20947;-86
2021/10/21 11:55:40;;;;;;;102.32;62.05;;;;;;;;;;4929084;29;20898;-89
2021/10/21 11:58:16;;;;;;;98.50;60.28;;;;;;;;;;4928604;29;20420;-88
2021/10/21 12:00:46;;;;;;;91.93;58.47;;;;;;;;;;4919846;29;20421;-86
2021/10/21 12:03:13;;;;;;;96.70;60.35;;;;;;;;;;4920219;29;20433;-88
2021/10/21 12:05:41;;;;;;;96.57;60.38;;;;;;;;;;4930399;29;20422;-88
2021/10/21 12:08:10;;;;;;;96.85;59.75;;;;;;;;;;4928496;29;20435;-88
2021/10/21 12:10:43;;;;;;;95.45;58.30;;;;;;;;;;4926854;29;20749;-88
2021/10/21 12:13:21;;;;;;;92.43;58.55;;;;;;;;;;4930125;29;20526;-87
2021/10/21 12:15:52;;;;;;;97.47;59.42;;;;;;;;;;4925615;29;20408;-86
2021/10/21 12:18:20;;;;;;;98.20;59.80;;;;;;;;;;4945118;29;20440;-89
2021/10/21 12:20:50;;;;;;;100.05;60.15;;;;;;;;;;4940057;29;20404;-86
2021/10/21 12:23:19;;;;;;;98.25;60.17;;;;;;;;;;4930676;29;20416;-87
2021/10/21 12:25:51;;;;;;;96.22;59.13;;;;;;;;;;4935684;29;20947;-87
2021/10/21 12:28:19;;;;;;;90.20;56.28;;;;;;;;;;4924772;29;20439;-86
2021/10/21 12:30:46;;;;;;;87.28;55.03;;;;;;;;;;4929479;29;20419;-87
2021/10/21 12:33:16;;;;;;;87.65;56.63;;;;;;;;;;4929398;29;20422;-86
2021/10/21 12:36:04;;;;;;;94.88;57.33;;;;;;;;;;4922070;29;20413;-86
2021/10/21 12:38:32;;;;;;;99.78;61.75;;;;;;;;;;4929752;29;20420;-86
2021/10/21 12:41:01;;;;;;;103.25;64.30;;;;;;;;;;4935329;29;20457;-85
2021/10/21 12:43:28;;;;;;;101.78;61.97;;;;;;;;;;4918518;29;20412;-84
2021/10/21 12:45:56;;;;;;;107.40;64.07;;;;;;;;;;4934464;29;20418;-85
2021/10/21 12:48:27;;;;;;;104.55;63.42;;;;;;;;;;4924115;29;20433;-86
2021/10/21 12:51:07;;;;;;;104.82;62.08;;;;;;;;;;4925631;29;20419;-86
2021/10/21 12:53:34;;;;;;;107.53;64.68;;;;;;;;;;4922811;29;20424;-87
2021/10/21 12:56:13;;;;;;;108.07;62.83;;;;;;;;;;4917230;29;20994;-87
2021/10/21 12:58:40;;;;;;;99.15;60.25;;;;;;;;;;4927257;29;20450;-85
2021/10/21 13:01:07;;;;;;;93.82;56.50;;;;;;;;;;4922975;29;20419;-83
2021/10/21 13:03:42;;;;;;;96.20;58.07;;;;;;;;;;4925814;29;20408;-84
2021/10/21 13:06:09;;;;;;;103.78;60.92;;;;;;;;;;4925616;29;20494;-84
2021/10/21 13:08:35;;;;;;;119.13;71.77;;;;;;;;;;4929646;29;20431;-84
2021/10/21 13:11:07;;;;;;;134.98;80.50;;;;;;;;;;4925404;29;21121;-84
2021/10/21 13:16:59;;;;;;;140.65;81.28;;;;;;;;;;4931837;29;20388;-86
2021/10/21 13:19:27;;;;;;;137.68;80.00;;;;;;;;;;4934370;29;20406;-86
2021/10/21 13:21:54;;;;;;;144.55;82.60;;;;;;;;;;4930772;29;20414;-86
2021/10/21 13:24:21;;;;;;;141.68;83.35;;;;;;;;;;4934355;29;20417;-86
2021/10/21 13:26:47;;;;;;;150.63;83.60;;;;;;;;;;4935762;29;20448;-87
2021/10/21 13:29:14;;;;;;;144.68;84.68;;;;;;;;;;4931335;29;21141;-86
2021/10/21 13:31:41;;;;;;;155.18;88.28;;;;;;;;;;4935794;29;20420;-87
2021/10/21 13:34:08;;;;;;;147.98;86.22;;;;;;;;;;4929449;29;20778;-86
2021/10/21 13:36:37;;;;;;;142.43;85.35;;;;;;;;;;4930845;29;20761;-87
2021/10/21 13:39:04;;;;;;;145.07;86.40;;;;;;;;;;4930847;29;20413;-87
2021/10/21 13:41:32;;;;;;;145.87;85.97;;;;;;;;;;4926801;29;20929;-87
2021/10/21 13:43:59;;;;;;;139.60;82.22;;;;;;;;;;4926827;29;21003;-87
2021/10/21 13:46:25;;;;;;;141.23;82.32;;;;;;;;;;4931558;29;20815;-87
2021/10/21 13:48:52;;;;;;;142.33;82.10;;;;;;;;;;4931780;29;20441;-87
2021/10/21 13:51:20;;;;;;;142.52;83.97;;;;;;;;;;4926233;29;20441;-86
2021/10/21 13:53:48;;;;;;;150.80;86.10;;;;;;;;;;4932394;29;20412;-85
2021/10/21 13:56:16;;;;;;;143.55;84.93;;;;;;;;;;4933232;29;20795;-85
2021/10/21 13:58:43;;;;;;;142.93;84.80;;;;;;;;;;4933274;29;20421;-87
2021/10/21 14:01:10;;;;;;;143.48;83.65;;;;;;;;;;4930378;29;20480;-86
2021/10/21 14:03:37;;;;;;;145.20;85.88;;;;;;;;;;4935251;29;20412;-86
2021/10/21 14:06:05;;;;;;;143.55;82.05;;;;;;;;;;4936627;28;20412;-87
2021/10/21 14:08:32;;;;;;;149.75;84.50;;;;;;;;;;4932986;29;20846;-86
2021/10/21 14:11:01;;;;;;;139.55;81.32;;;;;;;;;;4944589;29;20416;-87
2021/10/21 14:13:27;;;;;;;135.00;80.93;;;;;;;;;;4923320;29;20425;-86
2021/10/21 14:15:54;;;;;;;136.57;81.07;;;;;;;;;;4939821;29;20949;-86
2021/10/21 14:18:21;;;;;;;139.13;80.07;;;;;;;;;;4931482;29;20512;-85
2021/10/21 14:20:49;;;;;;;146.07;82.82;;;;;;;;;;4934696;29;20750;-87
2021/10/21 14:23:15;;;;;;;143.43;82.20;;;;;;;;;;4938866;29;20425;-86
2021/10/21 14:25:42;;;;;;;137.88;81.50;;;;;;;;;;4943591;29;20494;-86
2021/10/21 14:28:11;;;;;;;138.70;82.13;;;;;;;;;;4944059;29;20506;-86